sensor_id;sensor_type;location;lat;lon;timestamp;P1;durP1;ratioP1;P2;durP2;ratioP2
37239;SDS011;23130;48.760;9.178;2022-10-16T00:03:54;39.85;;;26.33;;
37239;SDS011;23130;48.760;9.178;2022-10-16T00:06:46;37.95;;;25.42;;
37239;SDS011;23130;48.760;9.178;2022-10-16T00:09:27;37.70;;;25.20;;
37239;SDS011;23130;48.760;9.178;2022-10-16T00:15:57;36.90;;;25.05;;
37239;SDS011;23130;48.760;9.178;2022-10-16T00:25:13;36.75;;;25.05;;
37239;SDS011;23130;48.760;9.178;2022-10-16T00:28:26;36.63;;;24.90;;
37239;SDS011;23130;48.760;9.178;2022-10-16T00:31:11;36.03;;;24.67;;
37239;SDS011;23130;48.760;9.178;2022-10-16T00:34:19;36.22;;;24.83;;
37239;SDS011;23130;48.760;9.178;2022-10-16T00:37:05;48.75;;;28.15;;
37239;SDS011;23130;48.760;9.178;2022-10-16T00:39:41;35.75;;;24.45;;
37239;SDS011;23130;48.760;9.178;2022-10-16T00:42:09;35.13;;;24.38;;
37239;SDS011;23130;48.760;9.178;2022-10-16T00:47:30;35.63;;;24.50;;
37239;SDS011;23130;48.760;9.178;2022-10-16T00:50:05;36.42;;;24.85;;
37239;SDS011;23130;48.760;9.178;2022-10-16T00:55:37;36.65;;;24.80;;
37239;SDS011;23130;48.760;9.178;2022-10-16T00:58:03;36.67;;;24.90;;
37239;SDS011;23130;48.760;9.178;2022-10-16T01:00:28;36.58;;;25.13;;
37239;SDS011;23130;48.760;9.178;2022-10-16T01:02:55;36.33;;;24.75;;
37239;SDS011;23130;48.760;9.178;2022-10-16T01:05:22;36.42;;;25.10;;
37239;SDS011;23130;48.760;9.178;2022-10-16T01:07:56;36.00;;;24.65;;
37239;SDS011;23130;48.760;9.178;2022-10-16T01:15:36;36.80;;;25.80;;
37239;SDS011;23130;48.760;9.178;2022-10-16T01:18:07;35.70;;;24.38;;
37239;SDS011;23130;48.760;9.178;2022-10-16T01:20:38;36.42;;;24.55;;
37239;SDS011;23130;48.760;9.178;2022-10-16T01:23:14;39.67;;;26.75;;
37239;SDS011;23130;48.760;9.178;2022-10-16T01:31:34;36.55;;;24.70;;
37239;SDS011;23130;48.760;9.178;2022-10-16T01:34:05;37.00;;;25.00;;
37239;SDS011;23130;48.760;9.178;2022-10-16T01:36:56;37.35;;;24.98;;
37239;SDS011;23130;48.760;9.178;2022-10-16T01:39:33;36.88;;;24.95;;
37239;SDS011;23130;48.760;9.178;2022-10-16T01:42:11;36.83;;;25.00;;
37239;SDS011;23130;48.760;9.178;2022-10-16T01:44:50;36.50;;;25.08;;
37239;SDS011;23130;48.760;9.178;2022-10-16T01:47:18;35.80;;;24.52;;
37239;SDS011;23130;48.760;9.178;2022-10-16T01:49:47;35.97;;;24.70;;
37239;SDS011;23130;48.760;9.178;2022-10-16T01:52:14;36.40;;;25.33;;
37239;SDS011;23130;48.760;9.178;2022-10-16T01:54:45;38.03;;;25.77;;
37239;SDS011;23130;48.760;9.178;2022-10-16T01:57:14;36.08;;;24.85;;
37239;SDS011;23130;48.760;9.178;2022-10-16T01:59:43;35.85;;;24.65;;
37239;SDS011;23130;48.760;9.178;2022-10-16T02:02:11;36.53;;;24.98;;
37239;SDS011;23130;48.760;9.178;2022-10-16T02:04:44;36.80;;;25.15;;
37239;SDS011;23130;48.760;9.178;2022-10-16T02:07:12;36.38;;;25.02;;
37239;SDS011;23130;48.760;9.178;2022-10-16T02:09:38;36.70;;;25.63;;
37239;SDS011;23130;48.760;9.178;2022-10-16T02:12:06;36.25;;;25.10;;
37239;SDS011;23130;48.760;9.178;2022-10-16T02:14:39;38.63;;;26.10;;
37239;SDS011;23130;48.760;9.178;2022-10-16T02:17:13;36.75;;;25.23;;
37239;SDS011;23130;48.760;9.178;2022-10-16T02:19:41;36.30;;;25.02;;
37239;SDS011;23130;48.760;9.178;2022-10-16T02:22:08;36.22;;;24.95;;
37239;SDS011;23130;48.760;9.178;2022-10-16T02:24:53;36.58;;;24.95;;
37239;SDS011;23130;48.760;9.178;2022-10-16T02:29:49;35.33;;;24.83;;
37239;SDS011;23130;48.760;9.178;2022-10-16T02:32:23;35.90;;;24.48;;
37239;SDS011;23130;48.760;9.178;2022-10-16T02:34:52;36.50;;;25.25;;
37239;SDS011;23130;48.760;9.178;2022-10-16T02:37:19;36.40;;;24.83;;
37239;SDS011;23130;48.760;9.178;2022-10-16T02:39:45;37.70;;;25.55;;
37239;SDS011;23130;48.760;9.178;2022-10-16T02:42:11;37.00;;;25.45;;
37239;SDS011;23130;48.760;9.178;2022-10-16T02:44:38;37.40;;;24.98;;
37239;SDS011;23130;48.760;9.178;2022-10-16T02:47:03;37.22;;;25.55;;
37239;SDS011;23130;48.760;9.178;2022-10-16T02:49:29;37.28;;;25.27;;
37239;SDS011;23130;48.760;9.178;2022-10-16T02:51:55;37.33;;;25.05;;
37239;SDS011;23130;48.760;9.178;2022-10-16T02:54:20;37.97;;;25.63;;
37239;SDS011;23130;48.760;9.178;2022-10-16T02:56:46;38.78;;;25.92;;
37239;SDS011;23130;48.760;9.178;2022-10-16T02:59:11;37.55;;;25.60;;
37239;SDS011;23130;48.760;9.178;2022-10-16T03:01:37;37.03;;;25.25;;
37239;SDS011;23130;48.760;9.178;2022-10-16T03:04:02;38.10;;;25.48;;
37239;SDS011;23130;48.760;9.178;2022-10-16T03:06:28;36.95;;;25.48;;
37239;SDS011;23130;48.760;9.178;2022-10-16T03:08:54;36.25;;;24.85;;
37239;SDS011;23130;48.760;9.178;2022-10-16T03:11:19;37.15;;;25.30;;
37239;SDS011;23130;48.760;9.178;2022-10-16T03:13:45;36.75;;;25.05;;
37239;SDS011;23130;48.760;9.178;2022-10-16T03:16:11;37.60;;;25.58;;
37239;SDS011;23130;48.760;9.178;2022-10-16T03:18:36;37.22;;;25.20;;
37239;SDS011;23130;48.760;9.178;2022-10-16T03:21:02;37.25;;;25.15;;
37239;SDS011;23130;48.760;9.178;2022-10-16T03:23:27;36.63;;;24.98;;
37239;SDS011;23130;48.760;9.178;2022-10-16T03:25:53;40.85;;;27.48;;
37239;SDS011;23130;48.760;9.178;2022-10-16T03:28:19;37.25;;;25.08;;
37239;SDS011;23130;48.760;9.178;2022-10-16T03:30:45;37.30;;;25.15;;
37239;SDS011;23130;48.760;9.178;2022-10-16T03:33:10;37.08;;;25.15;;
37239;SDS011;23130;48.760;9.178;2022-10-16T03:35:36;37.50;;;25.70;;
37239;SDS011;23130;48.760;9.178;2022-10-16T03:38:02;36.92;;;25.17;;
37239;SDS011;23130;48.760;9.178;2022-10-16T03:40:28;37.35;;;25.67;;
37239;SDS011;23130;48.760;9.178;2022-10-16T03:42:54;37.10;;;25.15;;
37239;SDS011;23130;48.760;9.178;2022-10-16T03:45:22;39.92;;;26.88;;
37239;SDS011;23130;48.760;9.178;2022-10-16T03:47:48;36.80;;;25.25;;
37239;SDS011;23130;48.760;9.178;2022-10-16T03:50:13;36.60;;;24.60;;
37239;SDS011;23130;48.760;9.178;2022-10-16T03:52:39;36.15;;;24.92;;
37239;SDS011;23130;48.760;9.178;2022-10-16T03:55:05;36.60;;;25.08;;
37239;SDS011;23130;48.760;9.178;2022-10-16T03:57:31;36.17;;;24.77;;
37239;SDS011;23130;48.760;9.178;2022-10-16T03:59:56;36.40;;;24.90;;
37239;SDS011;23130;48.760;9.178;2022-10-16T04:02:22;36.33;;;25.02;;
37239;SDS011;23130;48.760;9.178;2022-10-16T04:04:47;35.60;;;24.65;;
37239;SDS011;23130;48.760;9.178;2022-10-16T04:07:13;36.55;;;25.13;;
37239;SDS011;23130;48.760;9.178;2022-10-16T04:09:38;39.10;;;26.13;;
37239;SDS011;23130;48.760;9.178;2022-10-16T04:12:04;36.78;;;24.95;;
37239;SDS011;23130;48.760;9.178;2022-10-16T04:14:30;36.63;;;25.02;;
37239;SDS011;23130;48.760;9.178;2022-10-16T04:16:55;36.17;;;25.08;;
37239;SDS011;23130;48.760;9.178;2022-10-16T04:19:21;36.35;;;24.88;;
37239;SDS011;23130;48.760;9.178;2022-10-16T04:21:46;36.60;;;25.45;;
37239;SDS011;23130;48.760;9.178;2022-10-16T04:24:12;38.17;;;25.97;;
37239;SDS011;23130;48.760;9.178;2022-10-16T04:26:38;39.30;;;26.40;;
37239;SDS011;23130;48.760;9.178;2022-10-16T04:29:03;36.33;;;24.83;;
37239;SDS011;23130;48.760;9.178;2022-10-16T04:31:29;36.97;;;25.48;;
37239;SDS011;23130;48.760;9.178;2022-10-16T04:33:55;36.47;;;25.00;;
37239;SDS011;23130;48.760;9.178;2022-10-16T04:36:20;37.03;;;25.30;;
37239;SDS011;23130;48.760;9.178;2022-10-16T04:38:46;36.92;;;25.40;;
37239;SDS011;23130;48.760;9.178;2022-10-16T04:41:11;36.38;;;25.08;;
37239;SDS011;23130;48.760;9.178;2022-10-16T04:43:37;36.78;;;25.08;;
37239;SDS011;23130;48.760;9.178;2022-10-16T04:46:03;40.90;;;28.00;;
37239;SDS011;23130;48.760;9.178;2022-10-16T04:48:29;37.03;;;24.95;;
37239;SDS011;23130;48.760;9.178;2022-10-16T04:50:55;37.13;;;25.23;;
37239;SDS011;23130;48.760;9.178;2022-10-16T04:53:21;37.22;;;25.10;;
37239;SDS011;23130;48.760;9.178;2022-10-16T04:55:47;39.00;;;26.13;;
37239;SDS011;23130;48.760;9.178;2022-10-16T04:58:13;39.83;;;26.67;;
37239;SDS011;23130;48.760;9.178;2022-10-16T05:00:38;39.73;;;26.43;;
37239;SDS011;23130;48.760;9.178;2022-10-16T05:03:04;37.42;;;25.00;;
37239;SDS011;23130;48.760;9.178;2022-10-16T05:05:33;37.80;;;25.60;;
37239;SDS011;23130;48.760;9.178;2022-10-16T05:07:59;37.45;;;25.48;;
37239;SDS011;23130;48.760;9.178;2022-10-16T05:10:25;37.10;;;25.15;;
37239;SDS011;23130;48.760;9.178;2022-10-16T05:12:50;36.75;;;25.15;;
37239;SDS011;23130;48.760;9.178;2022-10-16T05:15:16;37.35;;;25.95;;
37239;SDS011;23130;48.760;9.178;2022-10-16T05:17:42;37.72;;;25.60;;
37239;SDS011;23130;48.760;9.178;2022-10-16T05:20:08;37.25;;;25.48;;
37239;SDS011;23130;48.760;9.178;2022-10-16T05:22:33;38.17;;;25.80;;
37239;SDS011;23130;48.760;9.178;2022-10-16T05:24:59;39.60;;;27.70;;
37239;SDS011;23130;48.760;9.178;2022-10-16T05:27:25;36.55;;;25.73;;
37239;SDS011;23130;48.760;9.178;2022-10-16T05:29:50;36.80;;;25.33;;
37239;SDS011;23130;48.760;9.178;2022-10-16T05:32:16;36.65;;;25.00;;
37239;SDS011;23130;48.760;9.178;2022-10-16T05:34:43;36.78;;;24.70;;
37239;SDS011;23130;48.760;9.178;2022-10-16T05:37:09;36.53;;;24.85;;
37239;SDS011;23130;48.760;9.178;2022-10-16T05:39:35;36.55;;;24.70;;
37239;SDS011;23130;48.760;9.178;2022-10-16T05:42:02;36.22;;;24.73;;
37239;SDS011;23130;48.760;9.178;2022-10-16T05:44:28;36.45;;;24.73;;
37239;SDS011;23130;48.760;9.178;2022-10-16T05:46:53;34.85;;;24.05;;
37239;SDS011;23130;48.760;9.178;2022-10-16T05:49:19;35.85;;;24.58;;
37239;SDS011;23130;48.760;9.178;2022-10-16T05:51:44;36.60;;;24.77;;
37239;SDS011;23130;48.760;9.178;2022-10-16T05:54:10;37.00;;;25.00;;
37239;SDS011;23130;48.760;9.178;2022-10-16T05:56:35;37.28;;;25.10;;
37239;SDS011;23130;48.760;9.178;2022-10-16T05:59:02;36.80;;;24.98;;
37239;SDS011;23130;48.760;9.178;2022-10-16T06:01:29;37.00;;;24.75;;
37239;SDS011;23130;48.760;9.178;2022-10-16T06:03:55;37.40;;;25.13;;
37239;SDS011;23130;48.760;9.178;2022-10-16T06:06:22;37.50;;;25.08;;
37239;SDS011;23130;48.760;9.178;2022-10-16T06:08:50;37.78;;;25.10;;
37239;SDS011;23130;48.760;9.178;2022-10-16T06:11:18;38.67;;;25.48;;
37239;SDS011;23130;48.760;9.178;2022-10-16T06:13:51;38.05;;;25.30;;
37239;SDS011;23130;48.760;9.178;2022-10-16T06:16:18;37.83;;;25.35;;
37239;SDS011;23130;48.760;9.178;2022-10-16T06:18:44;37.72;;;25.27;;
37239;SDS011;23130;48.760;9.178;2022-10-16T06:21:18;37.85;;;25.30;;
37239;SDS011;23130;48.760;9.178;2022-10-16T06:23:47;38.05;;;25.30;;
37239;SDS011;23130;48.760;9.178;2022-10-16T06:26:13;38.23;;;25.37;;
37239;SDS011;23130;48.760;9.178;2022-10-16T06:28:41;37.90;;;25.48;;
37239;SDS011;23130;48.760;9.178;2022-10-16T06:31:07;37.50;;;25.10;;
37239;SDS011;23130;48.760;9.178;2022-10-16T06:33:34;37.78;;;25.02;;
37239;SDS011;23130;48.760;9.178;2022-10-16T06:36:04;37.88;;;25.27;;
37239;SDS011;23130;48.760;9.178;2022-10-16T06:38:31;37.83;;;25.08;;
37239;SDS011;23130;48.760;9.178;2022-10-16T06:40:57;38.22;;;25.42;;
37239;SDS011;23130;48.760;9.178;2022-10-16T06:43:23;38.85;;;26.00;;
37239;SDS011;23130;48.760;9.178;2022-10-16T06:45:52;38.53;;;25.75;;
37239;SDS011;23130;48.760;9.178;2022-10-16T06:48:22;38.55;;;25.60;;
37239;SDS011;23130;48.760;9.178;2022-10-16T06:53:28;38.50;;;25.50;;
37239;SDS011;23130;48.760;9.178;2022-10-16T06:55:56;38.65;;;25.77;;
37239;SDS011;23130;48.760;9.178;2022-10-16T06:58:22;38.58;;;25.83;;
37239;SDS011;23130;48.760;9.178;2022-10-16T07:00:48;38.80;;;25.92;;
37239;SDS011;23130;48.760;9.178;2022-10-16T07:03:13;40.55;;;26.90;;
37239;SDS011;23130;48.760;9.178;2022-10-16T07:05:42;39.05;;;25.85;;
37239;SDS011;23130;48.760;9.178;2022-10-16T07:08:08;38.58;;;25.65;;
37239;SDS011;23130;48.760;9.178;2022-10-16T07:10:34;38.80;;;25.90;;
37239;SDS011;23130;48.760;9.178;2022-10-16T07:13:00;39.03;;;25.77;;
37239;SDS011;23130;48.760;9.178;2022-10-16T07:15:26;39.47;;;27.25;;
37239;SDS011;23130;48.760;9.178;2022-10-16T07:17:52;40.08;;;26.25;;
37239;SDS011;23130;48.760;9.178;2022-10-16T07:20:18;39.05;;;26.02;;
37239;SDS011;23130;48.760;9.178;2022-10-16T07:22:44;39.00;;;25.75;;
37239;SDS011;23130;48.760;9.178;2022-10-16T07:25:09;38.45;;;25.80;;
37239;SDS011;23130;48.760;9.178;2022-10-16T07:27:36;38.30;;;25.77;;
37239;SDS011;23130;48.760;9.178;2022-10-16T07:30:02;38.30;;;25.88;;
37239;SDS011;23130;48.760;9.178;2022-10-16T07:32:28;38.42;;;25.67;;
37239;SDS011;23130;48.760;9.178;2022-10-16T07:34:54;38.20;;;25.48;;
37239;SDS011;23130;48.760;9.178;2022-10-16T07:37:20;38.00;;;25.42;;
37239;SDS011;23130;48.760;9.178;2022-10-16T07:39:46;38.15;;;25.80;;
37239;SDS011;23130;48.760;9.178;2022-10-16T07:42:11;38.28;;;25.98;;
37239;SDS011;23130;48.760;9.178;2022-10-16T07:44:39;38.35;;;26.08;;
37239;SDS011;23130;48.760;9.178;2022-10-16T07:47:05;38.50;;;26.00;;
37239;SDS011;23130;48.760;9.178;2022-10-16T07:49:31;38.42;;;26.02;;
37239;SDS011;23130;48.760;9.178;2022-10-16T07:51:57;38.92;;;25.98;;
37239;SDS011;23130;48.760;9.178;2022-10-16T07:54:22;38.92;;;25.83;;
37239;SDS011;23130;48.760;9.178;2022-10-16T07:56:48;39.45;;;26.60;;
37239;SDS011;23130;48.760;9.178;2022-10-16T07:59:13;40.03;;;26.90;;
37239;SDS011;23130;48.760;9.178;2022-10-16T08:01:39;39.60;;;26.73;;
37239;SDS011;23130;48.760;9.178;2022-10-16T08:04:07;39.13;;;26.08;;
37239;SDS011;23130;48.760;9.178;2022-10-16T08:06:37;39.75;;;26.20;;
37239;SDS011;23130;48.760;9.178;2022-10-16T08:09:04;39.25;;;26.30;;
37239;SDS011;23130;48.760;9.178;2022-10-16T08:11:31;39.72;;;26.00;;
37239;SDS011;23130;48.760;9.178;2022-10-16T08:13:56;40.45;;;26.77;;
37239;SDS011;23130;48.760;9.178;2022-10-16T08:16:22;40.78;;;26.88;;
37239;SDS011;23130;48.760;9.178;2022-10-16T08:18:48;41.00;;;26.95;;
37239;SDS011;23130;48.760;9.178;2022-10-16T08:21:16;41.05;;;26.65;;
37239;SDS011;23130;48.760;9.178;2022-10-16T08:23:44;41.47;;;26.98;;
37239;SDS011;23130;48.760;9.178;2022-10-16T08:26:10;41.80;;;26.92;;
37239;SDS011;23130;48.760;9.178;2022-10-16T08:28:35;42.10;;;26.80;;
37239;SDS011;23130;48.760;9.178;2022-10-16T08:31:05;43.20;;;27.40;;
37239;SDS011;23130;48.760;9.178;2022-10-16T08:33:35;44.10;;;27.88;;
37239;SDS011;23130;48.760;9.178;2022-10-16T08:36:01;44.40;;;27.77;;
37239;SDS011;23130;48.760;9.178;2022-10-16T08:38:28;45.33;;;28.17;;
37239;SDS011;23130;48.760;9.178;2022-10-16T08:40:54;46.25;;;28.05;;
37239;SDS011;23130;48.760;9.178;2022-10-16T08:46:51;47.67;;;28.52;;
37239;SDS011;23130;48.760;9.178;2022-10-16T08:49:11;46.92;;;28.67;;
37239;SDS011;23130;48.760;9.178;2022-10-16T08:51:40;47.15;;;28.90;;
37239;SDS011;23130;48.760;9.178;2022-10-16T08:57:09;46.17;;;28.55;;
37239;SDS011;23130;48.760;9.178;2022-10-16T08:59:42;46.25;;;28.50;;
37239;SDS011;23130;48.760;9.178;2022-10-16T09:02:16;45.83;;;28.67;;
37239;SDS011;23130;48.760;9.178;2022-10-16T09:04:59;46.00;;;28.30;;
37239;SDS011;23130;48.760;9.178;2022-10-16T09:07:39;46.17;;;28.42;;
37239;SDS011;23130;48.760;9.178;2022-10-16T09:13:29;46.47;;;29.00;;
37239;SDS011;23130;48.760;9.178;2022-10-16T09:16:13;46.40;;;28.52;;
37239;SDS011;23130;48.760;9.178;2022-10-16T09:21:37;38.50;;;26.85;;
37239;SDS011;23130;48.760;9.178;2022-10-16T09:26:51;39.78;;;27.60;;
37239;SDS011;23130;48.760;9.178;2022-10-16T09:29:17;36.58;;;25.95;;
37239;SDS011;23130;48.760;9.178;2022-10-16T09:31:45;37.38;;;26.75;;
37239;SDS011;23130;48.760;9.178;2022-10-16T09:34:17;37.30;;;26.55;;
37239;SDS011;23130;48.760;9.178;2022-10-16T09:36:59;37.25;;;26.38;;
37239;SDS011;23130;48.760;9.178;2022-10-16T09:39:30;37.13;;;26.33;;
37239;SDS011;23130;48.760;9.178;2022-10-16T09:42:10;33.75;;;25.52;;
37239;SDS011;23130;48.760;9.178;2022-10-16T09:44:39;32.75;;;25.25;;
37239;SDS011;23130;48.760;9.178;2022-10-16T09:47:12;34.20;;;25.48;;
37239;SDS011;23130;48.760;9.178;2022-10-16T09:52:22;37.92;;;26.90;;
37239;SDS011;23130;48.760;9.178;2022-10-16T09:54:52;38.42;;;26.80;;
37239;SDS011;23130;48.760;9.178;2022-10-16T09:57:21;40.17;;;27.38;;
37239;SDS011;23130;48.760;9.178;2022-10-16T09:59:48;40.30;;;27.42;;
37239;SDS011;23130;48.760;9.178;2022-10-16T10:02:30;41.50;;;27.95;;
37239;SDS011;23130;48.760;9.178;2022-10-16T10:05:00;41.38;;;27.60;;
37239;SDS011;23130;48.760;9.178;2022-10-16T10:07:27;42.00;;;28.17;;
37239;SDS011;23130;48.760;9.178;2022-10-16T10:09:59;43.28;;;28.17;;
37239;SDS011;23130;48.760;9.178;2022-10-16T10:12:29;44.22;;;28.55;;
37239;SDS011;23130;48.760;9.178;2022-10-16T10:14:58;45.40;;;29.02;;
37239;SDS011;23130;48.760;9.178;2022-10-16T10:17:30;47.47;;;29.33;;
37239;SDS011;23130;48.760;9.178;2022-10-16T10:20:00;50.65;;;30.00;;
37239;SDS011;23130;48.760;9.178;2022-10-16T10:33:05;51.10;;;29.70;;
37239;SDS011;23130;48.760;9.178;2022-10-16T10:35:49;50.13;;;29.55;;
37239;SDS011;23130;48.760;9.178;2022-10-16T10:38:30;50.97;;;30.13;;
37239;SDS011;23130;48.760;9.178;2022-10-16T10:43:53;55.00;;;31.52;;
37239;SDS011;23130;48.760;9.178;2022-10-16T10:49:39;60.83;;;32.08;;
37239;SDS011;23130;48.760;9.178;2022-10-16T10:55:29;60.13;;;32.95;;
37239;SDS011;23130;48.760;9.178;2022-10-16T11:06:05;58.85;;;31.80;;
37239;SDS011;23130;48.760;9.178;2022-10-16T11:08:46;59.10;;;32.13;;
37239;SDS011;23130;48.760;9.178;2022-10-16T11:14:02;58.83;;;32.15;;
37239;SDS011;23130;48.760;9.178;2022-10-16T11:16:45;58.53;;;31.70;;
37239;SDS011;23130;48.760;9.178;2022-10-16T11:19:42;57.92;;;31.58;;
37239;SDS011;23130;48.760;9.178;2022-10-16T11:27:55;56.53;;;31.38;;
37239;SDS011;23130;48.760;9.178;2022-10-16T11:30:35;57.58;;;31.75;;
37239;SDS011;23130;48.760;9.178;2022-10-16T11:33:25;55.83;;;31.30;;
37239;SDS011;23130;48.760;9.178;2022-10-16T11:41:18;58.13;;;32.33;;
37239;SDS011;23130;48.760;9.178;2022-10-16T11:46:48;57.22;;;31.23;;
37239;SDS011;23130;48.760;9.178;2022-10-16T11:49:21;58.58;;;31.80;;
37239;SDS011;23130;48.760;9.178;2022-10-16T11:51:53;59.30;;;31.40;;
37239;SDS011;23130;48.760;9.178;2022-10-16T11:57:20;60.22;;;32.13;;
37239;SDS011;23130;48.760;9.178;2022-10-16T11:59:52;60.88;;;32.35;;
37239;SDS011;23130;48.760;9.178;2022-10-16T12:05:03;60.33;;;31.58;;
37239;SDS011;23130;48.760;9.178;2022-10-16T12:07:48;62.00;;;32.30;;
37239;SDS011;23130;48.760;9.178;2022-10-16T12:10:26;63.80;;;32.75;;
37239;SDS011;23130;48.760;9.178;2022-10-16T12:12:53;65.07;;;33.35;;
37239;SDS011;23130;48.760;9.178;2022-10-16T12:15:21;66.35;;;33.92;;
37239;SDS011;23130;48.760;9.178;2022-10-16T12:17:52;66.53;;;33.13;;
37239;SDS011;23130;48.760;9.178;2022-10-16T12:25:30;67.93;;;34.60;;
37239;SDS011;23130;48.760;9.178;2022-10-16T12:30:30;67.18;;;33.40;;
37239;SDS011;23130;48.760;9.178;2022-10-16T12:33:03;69.57;;;33.83;;
37239;SDS011;23130;48.760;9.178;2022-10-16T12:35:32;70.28;;;34.55;;
37239;SDS011;23130;48.760;9.178;2022-10-16T12:38:07;71.43;;;34.30;;
37239;SDS011;23130;48.760;9.178;2022-10-16T12:40:39;70.28;;;33.70;;
37239;SDS011;23130;48.760;9.178;2022-10-16T12:45:45;68.97;;;34.20;;
37239;SDS011;23130;48.760;9.178;2022-10-16T12:48:18;68.65;;;33.58;;
37239;SDS011;23130;48.760;9.178;2022-10-16T12:50:46;68.43;;;33.75;;
37239;SDS011;23130;48.760;9.178;2022-10-16T12:53:20;66.13;;;32.88;;
37239;SDS011;23130;48.760;9.178;2022-10-16T12:56:04;66.18;;;33.45;;
37239;SDS011;23130;48.760;9.178;2022-10-16T13:01:41;62.60;;;32.30;;
37239;SDS011;23130;48.760;9.178;2022-10-16T13:04:31;62.13;;;32.60;;
37239;SDS011;23130;48.760;9.178;2022-10-16T13:07:25;61.47;;;32.45;;
37239;SDS011;23130;48.760;9.178;2022-10-16T13:15:16;61.22;;;32.92;;
37239;SDS011;23130;48.760;9.178;2022-10-16T13:20:53;62.97;;;32.67;;
37239;SDS011;23130;48.760;9.178;2022-10-16T13:23:33;62.03;;;32.40;;
37239;SDS011;23130;48.760;9.178;2022-10-16T13:29:16;62.13;;;32.75;;
37239;SDS011;23130;48.760;9.178;2022-10-16T13:31:43;62.00;;;32.05;;
37239;SDS011;23130;48.760;9.178;2022-10-16T13:34:14;63.42;;;33.35;;
37239;SDS011;23130;48.760;9.178;2022-10-16T13:36:44;63.13;;;32.35;;
37239;SDS011;23130;48.760;9.178;2022-10-16T13:39:13;61.75;;;32.42;;
37239;SDS011;23130;48.760;9.178;2022-10-16T13:41:42;61.67;;;31.90;;
37239;SDS011;23130;48.760;9.178;2022-10-16T13:44:17;62.47;;;32.30;;
37239;SDS011;23130;48.760;9.178;2022-10-16T13:46:45;63.42;;;32.50;;
37239;SDS011;23130;48.760;9.178;2022-10-16T13:49:15;64.20;;;32.47;;
37239;SDS011;23130;48.760;9.178;2022-10-16T13:51:53;65.35;;;33.90;;
37239;SDS011;23130;48.760;9.178;2022-10-16T13:54:23;64.95;;;33.25;;
37239;SDS011;23130;48.760;9.178;2022-10-16T13:56:50;64.53;;;32.58;;
37239;SDS011;23130;48.760;9.178;2022-10-16T14:02:31;63.03;;;33.03;;
37239;SDS011;23130;48.760;9.178;2022-10-16T14:05:03;63.58;;;34.33;;
37239;SDS011;23130;48.760;9.178;2022-10-16T14:07:34;61.03;;;32.05;;
37239;SDS011;23130;48.760;9.178;2022-10-16T14:10:18;60.40;;;31.70;;
37239;SDS011;23130;48.760;9.178;2022-10-16T14:13:01;59.17;;;31.40;;
37239;SDS011;23130;48.760;9.178;2022-10-16T14:15:29;59.38;;;32.38;;
37239;SDS011;23130;48.760;9.178;2022-10-16T14:17:57;60.45;;;33.03;;
37239;SDS011;23130;48.760;9.178;2022-10-16T14:20:26;59.50;;;31.50;;
37239;SDS011;23130;48.760;9.178;2022-10-16T14:23:01;60.47;;;31.67;;
37239;SDS011;23130;48.760;9.178;2022-10-16T14:25:45;61.03;;;31.80;;
37239;SDS011;23130;48.760;9.178;2022-10-16T14:30:55;61.95;;;32.17;;
37239;SDS011;23130;48.760;9.178;2022-10-16T14:36:02;62.10;;;31.90;;
37239;SDS011;23130;48.760;9.178;2022-10-16T14:38:29;61.60;;;31.77;;
37239;SDS011;23130;48.760;9.178;2022-10-16T14:40:55;62.05;;;32.08;;
37239;SDS011;23130;48.760;9.178;2022-10-16T14:46:03;60.83;;;31.40;;
37239;SDS011;23130;48.760;9.178;2022-10-16T14:48:34;62.30;;;32.08;;
37239;SDS011;23130;48.760;9.178;2022-10-16T14:51:05;62.55;;;32.33;;
37239;SDS011;23130;48.760;9.178;2022-10-16T14:53:34;62.70;;;32.33;;
37239;SDS011;23130;48.760;9.178;2022-10-16T14:56:05;63.25;;;32.47;;
37239;SDS011;23130;48.760;9.178;2022-10-16T14:58:32;62.67;;;32.60;;
37239;SDS011;23130;48.760;9.178;2022-10-16T15:00:59;62.70;;;32.78;;
37239;SDS011;23130;48.760;9.178;2022-10-16T15:03:25;61.92;;;31.63;;
37239;SDS011;23130;48.760;9.178;2022-10-16T15:05:50;61.88;;;32.22;;
37239;SDS011;23130;48.760;9.178;2022-10-16T15:08:16;61.78;;;32.05;;
37239;SDS011;23130;48.760;9.178;2022-10-16T15:10:42;61.35;;;31.90;;
37239;SDS011;23130;48.760;9.178;2022-10-16T15:13:12;60.38;;;31.85;;
37239;SDS011;23130;48.760;9.178;2022-10-16T15:15:45;59.28;;;31.35;;
37239;SDS011;23130;48.760;9.178;2022-10-16T15:18:12;59.10;;;31.83;;
37239;SDS011;23130;48.760;9.178;2022-10-16T15:20:40;59.13;;;31.30;;
37239;SDS011;23130;48.760;9.178;2022-10-16T15:23:10;59.78;;;32.42;;
37239;SDS011;23130;48.760;9.178;2022-10-16T15:25:47;59.20;;;31.85;;
37239;SDS011;23130;48.760;9.178;2022-10-16T15:28:17;58.58;;;31.35;;
37239;SDS011;23130;48.760;9.178;2022-10-16T15:30:43;57.78;;;31.00;;
37239;SDS011;23130;48.760;9.178;2022-10-16T15:33:13;58.05;;;32.10;;
37239;SDS011;23130;48.760;9.178;2022-10-16T15:35:41;57.05;;;31.13;;
37239;SDS011;23130;48.760;9.178;2022-10-16T15:38:09;56.35;;;30.80;;
37239;SDS011;23130;48.760;9.178;2022-10-16T15:40:37;55.78;;;30.48;;
37239;SDS011;23130;48.760;9.178;2022-10-16T15:43:03;56.33;;;30.80;;
37239;SDS011;23130;48.760;9.178;2022-10-16T15:45:28;56.92;;;32.25;;
37239;SDS011;23130;48.760;9.178;2022-10-16T15:47:54;55.90;;;30.98;;
37239;SDS011;23130;48.760;9.178;2022-10-16T15:50:19;55.38;;;30.88;;
37239;SDS011;23130;48.760;9.178;2022-10-16T15:52:45;54.97;;;30.67;;
37239;SDS011;23130;48.760;9.178;2022-10-16T15:55:12;54.95;;;30.27;;
37239;SDS011;23130;48.760;9.178;2022-10-16T15:57:38;54.70;;;30.45;;
37239;SDS011;23130;48.760;9.178;2022-10-16T16:00:10;54.22;;;30.58;;
37239;SDS011;23130;48.760;9.178;2022-10-16T16:02:38;54.13;;;30.80;;
37239;SDS011;23130;48.760;9.178;2022-10-16T16:05:05;53.20;;;29.98;;
37239;SDS011;23130;48.760;9.178;2022-10-16T16:07:33;53.35;;;30.55;;
37239;SDS011;23130;48.760;9.178;2022-10-16T16:09:59;52.25;;;29.58;;
37239;SDS011;23130;48.760;9.178;2022-10-16T16:12:25;50.97;;;29.70;;
37239;SDS011;23130;48.760;9.178;2022-10-16T16:14:50;51.20;;;30.20;;
37239;SDS011;23130;48.760;9.178;2022-10-16T16:17:16;50.58;;;29.88;;
37239;SDS011;23130;48.760;9.178;2022-10-16T16:19:42;49.83;;;29.63;;
37239;SDS011;23130;48.760;9.178;2022-10-16T16:22:07;48.78;;;29.17;;
37239;SDS011;23130;48.760;9.178;2022-10-16T16:24:33;50.70;;;31.52;;
37239;SDS011;23130;48.760;9.178;2022-10-16T16:26:58;47.88;;;28.85;;
37239;SDS011;23130;48.760;9.178;2022-10-16T16:29:24;47.63;;;29.48;;
37239;SDS011;23130;48.760;9.178;2022-10-16T16:31:51;46.83;;;28.73;;
37239;SDS011;23130;48.760;9.178;2022-10-16T16:34:22;46.88;;;28.98;;
37239;SDS011;23130;48.760;9.178;2022-10-16T16:36:51;46.63;;;29.13;;
37239;SDS011;23130;48.760;9.178;2022-10-16T16:39:17;46.42;;;28.73;;
37239;SDS011;23130;48.760;9.178;2022-10-16T16:41:43;46.63;;;29.15;;
37239;SDS011;23130;48.760;9.178;2022-10-16T16:44:11;46.90;;;28.83;;
37239;SDS011;23130;48.760;9.178;2022-10-16T16:46:37;46.88;;;28.77;;
37239;SDS011;23130;48.760;9.178;2022-10-16T16:49:04;46.75;;;28.73;;
37239;SDS011;23130;48.760;9.178;2022-10-16T16:51:31;47.00;;;29.20;;
37239;SDS011;23130;48.760;9.178;2022-10-16T16:53:58;46.88;;;28.60;;